TimeMST,TemperatureF,Dew PointF,Humidity,Sea Level PressureIn,VisibilityMPH,Wind Direction,Wind SpeedMPH,Gust SpeedMPH,PrecipitationIn,Events,Conditions,WindDirDegrees,DateUTC
12:53 AM,27.0,19.0,72,30.13,10.0,NNE,23.0,36.8,N/A,,Mostly Cloudy,20,2013-11-21 07:53:00
1:53 AM,25.0,17.1,72,30.19,10.0,North,23.0,29.9,N/A,,Overcast,10,2013-11-21 08:53:00
2:53 AM,23.0,15.1,72,30.20,10.0,North,26.5,33.4,N/A,,Mostly Cloudy,10,2013-11-21 09:53:00
3:53 AM,21.0,12.0,68,30.22,10.0,North,25.3,-,N/A,,Overcast,10,2013-11-21 10:53:00
4:31 AM,19.4,12.2,74,30.20,10.0,North,21.9,26.5,N/A,,Overcast,10,2013-11-21 11:31:00
4:53 AM,19.9,10.9,68,30.27,10.0,North,20.7,29.9,N/A,,Overcast,10,2013-11-21 11:53:00
5:45 AM,19.4,10.4,68,30.22,10.0,North,23.0,29.9,N/A,,Overcast,360,2013-11-21 12:45:00
5:53 AM,19.0,10.0,68,30.31,10.0,North,26.5,-,N/A,,Overcast,10,2013-11-21 12:53:00
6:53 AM,18.0,10.9,74,30.36,10.0,North,20.7,-,N/A,,Overcast,360,2013-11-21 13:53:00
7:53 AM,18.0,10.0,71,30.40,9.0,North,23.0,28.8,N/A,,Overcast,360,2013-11-21 14:53:00
8:28 AM,17.6,10.4,73,30.33,1.8,North,20.7,-,0.00,Snow,Light Snow,360,2013-11-21 15:28:00
8:44 AM,17.6,10.4,73,30.34,3.0,North,20.7,-,0.00,Snow,Light Snow,350,2013-11-21 15:44:00
8:53 AM,17.1,10.0,74,30.44,3.0,North,19.6,-,0.00,Snow,Light Snow,360,2013-11-21 15:53:00
9:29 AM,17.6,10.4,73,30.35,2.5,North,21.9,31.1,0.00,Snow,Light Snow,350,2013-11-21 16:29:00
9:42 AM,17.6,10.4,73,30.36,1.0,North,20.7,26.5,0.00,Snow,Light Snow,360,2013-11-21 16:42:00
9:49 AM,17.6,10.4,73,30.37,0.8,North,23.0,28.8,0.00,Snow,Light Snow,350,2013-11-21 16:49:00
9:50 AM,17.1,10.9,77,30.46,0.8,North,24.2,28.8,0.00,Snow,Light Snow,360,2013-11-21 16:50:00
9:57 AM,15.8,10.4,79,30.37,1.0,North,21.9,28.8,0.00,Snow,Light Snow,360,2013-11-21 16:57:00
10:05 AM,15.8,10.4,79,30.38,0.8,North,23.0,-,0.00,Snow,Light Snow,360,2013-11-21 17:05:00
10:45 AM,15.8,10.4,79,30.37,0.5,North,20.7,29.9,0.00,Snow,Snow,360,2013-11-21 17:45:00
10:53 AM,17.1,12.9,84,30.49,0.2,North,20.7,31.1,0.00,Fog-Snow,Snow,350,2013-11-21 17:53:00
11:08 AM,15.8,12.2,86,30.37,0.5,North,18.4,-,0.00,Fog-Snow,Snow,360,2013-11-21 18:08:00
11:53 AM,17.1,12.0,81,30.50,1.8,North,18.4,27.6,0.01,Snow,Light Snow,360,2013-11-21 18:53:00
12:00 PM,17.6,12.2,79,30.38,2.0,North,18.4,-,0.00,Snow,Light Snow,360,2013-11-21 19:00:00
12:08 PM,17.6,12.2,79,30.37,1.5,North,18.4,27.6,0.00,Snow,Light Snow,360,2013-11-21 19:08:00
12:53 PM,17.1,12.0,81,30.50,0.8,North,18.4,-,0.00,Snow,Light Snow,360,2013-11-21 19:53:00
1:11 PM,17.6,10.4,73,30.38,1.0,North,23.0,29.9,0.00,Snow,Light Snow,350,2013-11-21 20:11:00
1:30 PM,17.6,12.2,79,30.38,0.8,North,19.6,-,0.00,Snow,Light Snow,360,2013-11-21 20:30:00
1:37 PM,15.8,12.2,86,30.39,0.5,North,19.6,26.5,0.00,Fog-Snow,Snow,350,2013-11-21 20:37:00
1:53 PM,16.0,12.0,84,30.53,0.5,North,19.6,-,0.00,Fog-Snow,Snow,350,2013-11-21 20:53:00
2:53 PM,16.0,12.0,84,30.58,1.2,North,19.6,-,0.01,Snow,Light Snow,360,2013-11-21 21:53:00
3:05 PM,15.8,10.4,79,30.44,1.5,North,20.7,28.8,0.00,Snow,Light Snow,10,2013-11-21 22:05:00
3:09 PM,15.8,10.4,79,30.44,2.0,North,18.4,27.6,0.00,Snow,Light Snow,10,2013-11-21 22:09:00
3:22 PM,15.8,10.4,79,30.45,1.2,North,21.9,-,0.00,Snow,Light Snow,350,2013-11-21 22:22:00
3:35 PM,15.8,10.4,79,30.44,2.0,North,20.7,-,0.00,Snow,Light Snow,360,2013-11-21 22:35:00
3:44 PM,15.8,10.4,79,30.44,3.0,North,19.6,-,0.00,Snow,Light Snow,360,2013-11-21 22:44:00
3:53 PM,15.1,10.0,80,30.60,2.5,North,21.9,27.6,0.00,Snow,Light Snow,350,2013-11-21 22:53:00
4:01 PM,15.8,10.4,79,30.45,3.0,North,23.0,-,0.00,Snow,Light Snow,360,2013-11-21 23:01:00
4:12 PM,15.8,10.4,79,30.46,2.5,North,17.3,27.6,0.00,Snow,Light Snow,350,2013-11-21 23:12:00
4:21 PM,15.8,10.4,79,30.47,3.0,North,19.6,-,0.00,Snow,Light Snow,350,2013-11-21 23:21:00
4:53 PM,15.1,9.0,77,30.65,10.0,North,19.6,27.6,0.00,,Overcast,360,2013-11-21 23:53:00
5:53 PM,15.1,8.1,74,30.69,10.0,North,18.4,-,0.00,,Overcast,350,2013-11-22 00:53:00
6:53 PM,16.0,8.1,71,30.71,10.0,NNW,17.3,-,N/A,,Overcast,340,2013-11-22 01:53:00
7:53 PM,15.1,8.1,74,30.74,10.0,NNW,16.1,-,N/A,,Overcast,340,2013-11-22 02:53:00
8:53 PM,16.0,9.0,74,30.74,10.0,NNW,16.1,-,N/A,,Overcast,340,2013-11-22 03:53:00
9:53 PM,15.1,8.1,74,30.75,10.0,NNW,15.0,-,N/A,,Mostly Cloudy,340,2013-11-22 04:53:00
10:53 PM,14.0,5.0,67,30.78,10.0,NW,9.2,-,N/A,,Clear,310,2013-11-22 05:53:00
11:53 PM,12.0,6.1,77,30.78,10.0,NW,9.2,-,N/A,,Clear,310,2013-11-22 06:53:00